createdAt,value
2019-03-01T00:05:18.506Z,100255.42
2019-03-01T00:10:33.459Z,100254.95
2019-03-01T00:16:38.899Z,100257.68
2019-03-01T00:22:11.749Z,100247.56
2019-03-01T00:27:55.304Z,100246.09
2019-03-01T00:33:23.393Z,100240.05
2019-03-01T00:38:55.607Z,100260.69
2019-03-01T00:44:24.718Z,100257.32
2019-03-01T00:49:26.797Z,100248.04
2019-03-01T00:54:28.874Z,100233.40
2019-03-01T00:59:31.005Z,100203.53
2019-03-01T01:04:33.226Z,100242.96
2019-03-01T01:09:35.330Z,100202.04
2019-03-01T01:14:37.471Z,100201.22
2019-03-01T01:19:39.627Z,100201.12
2019-03-01T01:24:41.700Z,100186.13
2019-03-01T01:29:43.814Z,100197.00
2019-03-01T01:34:45.936Z,100202.47
2019-03-01T01:39:48.004Z,100175.44
2019-03-01T01:44:50.061Z,100159.07
2019-03-01T01:49:52.083Z,100167.61
2019-03-01T01:54:54.126Z,100180.92
2019-03-01T01:59:56.227Z,100149.38
2019-03-01T02:04:58.388Z,100157.92
2019-03-01T02:10:00.402Z,100150.72
2019-03-01T02:15:02.940Z,100146.36
2019-03-01T02:20:05.285Z,100139.19
2019-03-01T02:25:08.620Z,100169.52
2019-03-01T02:30:13.555Z,100176.08
2019-03-01T02:35:25.769Z,100132.44
2019-03-01T02:40:27.883Z,100166.92
2019-03-01T02:45:30.007Z,100137.38
2019-03-01T02:50:32.115Z,100131.98
2019-03-01T02:55:34.409Z,100147.09
2019-03-01T03:00:36.819Z,100142.77
2019-03-01T03:05:55.933Z,100138.06
2019-03-01T03:10:57.997Z,100109.64
2019-03-01T03:16:00.598Z,100127.64
2019-03-01T03:21:02.718Z,100131.94
2019-03-01T03:26:04.784Z,100087.96
2019-03-01T03:31:06.920Z,100086.88
2019-03-01T03:36:08.981Z,100117.83
2019-03-01T03:41:11.623Z,100080.77
2019-03-01T03:46:13.726Z,100071.05
2019-03-01T03:51:15.865Z,100083.10
2019-03-01T03:56:18.127Z,100094.91
2019-03-01T04:01:20.237Z,100068.55
2019-03-01T04:06:22.283Z,100088.19
2019-03-01T04:11:24.316Z,100091.50
2019-03-01T04:16:26.793Z,100096.16
2019-03-01T04:21:28.900Z,100068.84
2019-03-01T04:26:31.071Z,100041.44
2019-03-01T04:31:33.251Z,100033.47
2019-03-01T04:36:35.332Z,100036.41
2019-03-01T04:41:37.341Z,100031.76
2019-03-01T04:46:39.346Z,100040.58
2019-03-01T04:51:41.714Z,100036.59
2019-03-01T04:56:43.824Z,100034.17
2019-03-01T05:01:45.883Z,100030.91
2019-03-01T05:06:47.961Z,100042.90
2019-03-01T05:11:50.039Z,100057.66
2019-03-01T05:16:52.164Z,100061.25
2019-03-01T05:21:54.305Z,100053.00
2019-03-01T05:26:56.412Z,100038.45
2019-03-01T05:31:58.433Z,100011.52
2019-03-01T05:37:00.516Z,100035.12
2019-03-01T05:42:02.599Z,100003.78
2019-03-01T05:47:04.684Z,99995.97
2019-03-01T05:52:06.725Z,100009.25
2019-03-01T05:57:09.194Z,100013.94
2019-03-01T06:02:56.559Z,99995.45
2019-03-01T06:08:37.597Z,100027.88
2019-03-01T06:14:26.697Z,100028.34
2019-03-01T06:19:50.184Z,100020.91
2019-03-01T06:25:08.618Z,100021.38
2019-03-01T06:30:32.761Z,100032.63
2019-03-01T06:36:05.027Z,99998.29
2019-03-01T06:42:19.642Z,100032.48
2019-03-01T06:47:38.183Z,100021.85
2019-03-01T06:52:40.762Z,100003.03
2019-03-01T06:57:42.877Z,100024.03
2019-03-01T07:02:45.783Z,100026.13
2019-03-01T07:07:47.920Z,99988.19
2019-03-01T07:12:50.059Z,99997.47
2019-03-01T07:17:52.209Z,100025.77
2019-03-01T07:22:54.354Z,100024.08
2019-03-01T07:27:56.394Z,100024.63
2019-03-01T07:32:58.557Z,99984.70
2019-03-01T07:38:00.605Z,100003.19
2019-03-01T07:43:03.908Z,100025.14
2019-03-01T07:48:06.584Z,99998.00
2019-03-01T07:53:08.683Z,100005.98
2019-03-01T07:58:10.829Z,100004.69
2019-03-01T08:03:15.120Z,100009.55
2019-03-01T08:08:16.969Z,100043.86
2019-03-01T08:13:19.367Z,100009.50
2019-03-01T08:18:21.800Z,100045.54
2019-03-01T08:23:24.022Z,100053.67
2019-03-01T08:28:26.127Z,100016.08
2019-03-01T08:33:28.180Z,100057.37
2019-03-01T08:38:30.570Z,100058.48
2019-03-01T08:43:32.683Z,100061.39
2019-03-01T08:48:34.897Z,100059.34
2019-03-01T08:53:37.248Z,100060.53
2019-03-01T08:58:41.574Z,100061.91
2019-03-01T09:03:50.342Z,100065.86
2019-03-01T09:08:52.685Z,100064.97
2019-03-01T09:13:54.813Z,100058.83
2019-03-01T09:18:57.048Z,100070.13
2019-03-01T09:23:59.103Z,100062.34
2019-03-01T09:29:01.236Z,100068.86
2019-03-01T09:34:03.451Z,100075.13
2019-03-01T09:39:08.387Z,100069.66
2019-03-01T09:44:10.506Z,100085.50
2019-03-01T09:49:12.558Z,100085.41
2019-03-01T09:54:14.669Z,100106.25
2019-03-01T09:59:16.669Z,100099.57
2019-03-01T10:04:18.776Z,100113.25
2019-03-01T10:09:21.444Z,100120.50
2019-03-01T10:14:26.469Z,100126.26
2019-03-01T10:19:28.597Z,100116.38
2019-03-01T10:24:30.646Z,100125.73
2019-03-01T10:29:32.754Z,100121.97
2019-03-01T10:34:34.887Z,100122.86
2019-03-01T10:39:37.318Z,100122.86
2019-03-01T10:44:39.426Z,100139.10
2019-03-01T10:49:41.619Z,100139.48
2019-03-01T10:54:43.688Z,100134.64
2019-03-01T10:59:45.746Z,100137.47
2019-03-01T11:04:47.839Z,100140.50
2019-03-01T11:09:49.882Z,100138.31
2019-03-01T11:14:51.961Z,100142.36
2019-03-01T11:19:54.053Z,100140.04
2019-03-01T11:24:56.156Z,100148.43
2019-03-01T11:29:58.240Z,100155.20
2019-03-01T11:35:00.588Z,100143.78
2019-03-01T11:40:03.677Z,100137.37
2019-03-01T11:45:06.984Z,100137.37
2019-03-01T11:50:12.004Z,100158.56
2019-03-01T11:55:14.162Z,100134.58
2019-03-01T12:00:18.166Z,100121.64
2019-03-01T12:05:20.638Z,100139.46
2019-03-01T12:10:24.948Z,100152.59
2019-03-01T12:15:39.712Z,100165.45
2019-03-01T12:20:33.171Z,100191.66
2019-03-01T12:25:35.215Z,100173.06
2019-03-01T12:30:38.084Z,100173.20
2019-03-01T12:35:40.176Z,100176.63
2019-03-01T12:40:42.567Z,100178.22
2019-03-01T12:45:44.809Z,100182.86
2019-03-01T12:50:46.928Z,100192.44
2019-03-01T12:55:49.752Z,100229.17
2019-03-01T13:00:52.102Z,100183.32
2019-03-01T13:05:54.483Z,100198.34
2019-03-01T13:10:56.639Z,100195.95
2019-03-01T13:16:04.394Z,100196.75
2019-03-01T13:21:09.570Z,100201.29
2019-03-01T13:26:10.812Z,100201.29
2019-03-01T13:31:12.882Z,100185.34
2019-03-01T13:36:14.927Z,100194.42
2019-03-01T13:41:16.978Z,100182.32
2019-03-01T13:46:19.050Z,100188.92
2019-03-01T13:51:21.160Z,100194.55
2019-03-01T13:56:23.253Z,100203.20
2019-03-01T14:01:27.075Z,100201.56
2019-03-01T14:06:29.379Z,100202.22
2019-03-01T14:11:31.639Z,100208.30
2019-03-01T14:16:33.727Z,100209.09
2019-03-01T14:21:35.838Z,100218.39
2019-03-01T14:26:37.972Z,100225.16
2019-03-01T14:31:43.010Z,100248.98
2019-03-01T14:36:44.021Z,100231.23
2019-03-01T14:41:46.099Z,100244.06
2019-03-01T14:46:48.153Z,100267.11
2019-03-01T14:51:50.205Z,100293.61
2019-03-01T14:56:57.299Z,100284.83
2019-03-01T15:02:40.767Z,100290.16
2019-03-01T15:07:42.874Z,100293.59
2019-03-01T15:12:44.978Z,100260.58
2019-03-01T15:17:47.064Z,100274.38
2019-03-01T15:22:49.663Z,100287.58
2019-03-01T15:27:52.123Z,100296.60
2019-03-01T15:32:54.299Z,100285.77
2019-03-01T15:37:56.411Z,100276.77
2019-03-01T15:42:58.632Z,100291.41
2019-03-01T15:48:01.986Z,100309.66
2019-03-01T15:53:04.781Z,100306.37
2019-03-01T15:58:06.864Z,100309.02
2019-03-01T16:03:09.106Z,100330.84
2019-03-01T16:08:11.145Z,100331.61
2019-03-01T16:13:13.364Z,100342.26
2019-03-01T16:18:15.469Z,100341.11
2019-03-01T16:23:17.603Z,100354.56
2019-03-01T16:28:19.968Z,100352.23
2019-03-01T16:33:22.510Z,100387.27
2019-03-01T16:38:25.958Z,100363.89
2019-03-01T16:43:28.576Z,100364.69
2019-03-01T16:48:32.993Z,100376.01
2019-03-01T16:53:36.721Z,100377.80
2019-03-01T16:58:39.065Z,100388.27
2019-03-01T17:03:41.140Z,100392.08
2019-03-01T17:08:43.226Z,100401.55
2019-03-01T17:13:45.583Z,100410.37
2019-03-01T17:18:48.576Z,100419.58
2019-03-01T17:23:54.689Z,100454.59
2019-03-01T17:28:59.675Z,100442.81
2019-03-01T17:34:00.846Z,100440.54
2019-03-01T17:39:05.362Z,100443.06
2019-03-01T17:44:08.671Z,100439.64
2019-03-01T17:49:11.764Z,100450.34
2019-03-01T17:54:13.879Z,100467.39
2019-03-01T17:59:16.346Z,100466.83
2019-03-01T18:04:18.423Z,100488.80
2019-03-01T18:09:20.490Z,100495.99
2019-03-01T18:14:22.835Z,100506.14
2019-03-01T18:19:26.630Z,100514.23
2019-03-01T18:24:28.955Z,100517.89
2019-03-01T18:29:31.621Z,100518.02
2019-03-01T18:34:36.366Z,100525.52
2019-03-01T18:39:38.228Z,100528.25
2019-03-01T18:44:41.688Z,100539.34
2019-03-01T18:49:43.821Z,100512.78
2019-03-01T18:54:45.881Z,100519.34
2019-03-01T18:59:47.917Z,100528.39
2019-03-01T19:04:50.527Z,100554.22
2019-03-01T19:09:53.234Z,100550.30
2019-03-01T19:14:55.376Z,100526.66
2019-03-01T19:19:57.501Z,100529.19
2019-03-01T19:24:59.911Z,100545.59
2019-03-01T19:30:02.029Z,100561.85
2019-03-01T19:35:04.281Z,100557.16
2019-03-01T19:40:10.862Z,100555.41
2019-03-01T19:45:14.462Z,100551.78
2019-03-01T19:50:17.477Z,100561.08
2019-03-01T19:55:19.499Z,100581.50
2019-03-01T20:00:22.813Z,100566.55
2019-03-01T20:05:27.813Z,100575.36
2019-03-01T20:10:29.485Z,100594.42
2019-03-01T20:15:31.561Z,100596.57
2019-03-01T20:20:34.381Z,100594.97
2019-03-01T20:25:36.593Z,100609.61
2019-03-01T20:30:38.905Z,100608.54
2019-03-01T20:35:40.982Z,100618.17
2019-03-01T20:40:43.052Z,100621.69
2019-03-01T20:45:45.154Z,100626.33
2019-03-01T20:50:47.704Z,100634.75
2019-03-01T20:55:51.241Z,100639.52
2019-03-01T21:00:53.319Z,100645.88
2019-03-01T21:05:55.414Z,100648.91
2019-03-01T21:10:57.466Z,100643.03
2019-03-01T21:15:59.565Z,100648.86
2019-03-01T21:21:01.659Z,100661.94
2019-03-01T21:26:03.745Z,100660.45
2019-03-01T21:31:05.876Z,100661.77
2019-03-01T21:36:08.001Z,100656.17
2019-03-01T21:41:11.137Z,100647.03
2019-03-01T21:46:13.237Z,100649.50
2019-03-01T21:51:18.480Z,100666.26
2019-03-01T21:56:19.471Z,100654.90
2019-03-01T22:01:21.513Z,100664.87
2019-03-01T22:06:23.960Z,100658.02
2019-03-01T22:11:26.836Z,100654.81
2019-03-01T22:16:28.924Z,100665.73
2019-03-01T22:21:31.322Z,100676.23
2019-03-01T22:26:33.533Z,100676.00
2019-03-01T22:31:36.268Z,100676.11
2019-03-01T22:36:38.370Z,100685.84
2019-03-01T22:41:40.865Z,100676.23
2019-03-01T22:46:43.270Z,100689.42
2019-03-01T22:51:45.444Z,100684.58
2019-03-01T22:56:48.416Z,100705.16
2019-03-01T23:01:54.640Z,100674.61
2019-03-01T23:06:57.047Z,100671.90
2019-03-01T23:11:59.383Z,100682.40
2019-03-01T23:17:01.480Z,100679.45
2019-03-01T23:22:03.598Z,100682.66
2019-03-01T23:27:05.695Z,100682.03
2019-03-01T23:32:07.789Z,100667.16
2019-03-01T23:37:09.856Z,100675.50
2019-03-01T23:42:12.051Z,100676.06
2019-03-01T23:47:14.104Z,100678.55
2019-03-01T23:52:16.169Z,100683.75
2019-03-01T23:57:18.279Z,100683.05
